Time;durP1;ratioP1;P1;durP2;ratioP2;P2;SDS_P1;SDS_P2;PMS_P1;PMS_P2;Temp;Humidity;BMP_temperature;BMP_pressure;BME280_temperature;BME280_humidity;BME280_pressure;Samples;Min_cycle;Max_cycle;Signal;HPM_P1;HPM_P2
2022/05/08 00:00:50;;;;;;;5.10;1.67;;;19.00;45.10;;;;;;4992810;28;20666;-87
2022/05/08 00:03:18;;;;;;;4.75;1.70;;;19.00;45.20;;;;;;5024167;28;20268;-88
2022/05/08 00:05:52;;;;;;;5.30;1.73;;;19.00;45.20;;;;;;5024366;28;20242;-86
2022/05/08 00:08:18;;;;;;;7.25;2.40;;;19.00;45.20;;;;;;5007253;28;20269;-87
2022/05/08 00:10:46;;;;;;;5.18;1.80;;;19.00;45.20;;;;;;5024649;28;20173;-88
2022/05/08 00:13:16;;;;;;;4.78;1.80;;;19.00;45.30;;;;;;5008246;28;20671;-87
2022/05/08 00:15:44;;;;;;;2.88;1.95;;;19.00;45.30;;;;;;5007470;28;20177;-87
2022/05/08 00:18:09;;;;;;;5.93;1.60;;;18.90;45.30;;;;;;4991084;28;20245;-88
2022/05/08 00:20:37;;;;;;;6.95;1.88;;;19.00;45.30;;;;;;5040978;28;20254;-87
2022/05/08 00:23:05;;;;;;;7.65;1.83;;;19.00;45.40;;;;;;5024014;28;20722;-88
2022/05/08 00:25:32;;;;;;;6.75;1.88;;;19.00;45.40;;;;;;5024390;28;20247;-88
2022/05/08 00:28:03;;;;;;;7.72;2.20;;;19.00;45.50;;;;;;5007512;28;20241;-87
2022/05/08 00:30:30;;;;;;;4.22;1.77;;;19.00;45.30;;;;;;5023959;28;20177;-87
2022/05/08 00:32:58;;;;;;;3.88;1.73;;;19.00;45.40;;;;;;5007447;28;20196;-86
2022/05/08 00:35:26;;;;;;;5.85;1.90;;;18.90;45.40;;;;;;5007270;28;20212;-88
2022/05/08 00:37:56;;;;;;;6.40;1.90;;;18.90;45.50;;;;;;5006203;28;20185;-87
2022/05/08 00:40:32;;;;;;;4.38;1.88;;;18.90;45.40;;;;;;5006945;28;20260;-87
2022/05/08 00:43:32;;;;;;;5.53;2.45;;;18.90;45.50;;;;;;5025086;28;20213;-87
2022/05/08 00:46:05;;;;;;;4.88;2.15;;;18.90;45.50;;;;;;5075033;28;20249;-87
2022/05/08 00:48:33;;;;;;;4.57;2.08;;;18.90;45.50;;;;;;5007823;28;20285;-87
2022/05/08 00:51:00;;;;;;;6.80;1.70;;;18.90;45.50;;;;;;5023003;28;20191;-87
2022/05/08 00:53:30;;;;;;;3.97;2.03;;;18.90;45.50;;;;;;5007136;28;20189;-86
2022/05/08 00:55:56;;;;;;;3.97;1.80;;;18.90;45.40;;;;;;5007977;28;20182;-87
2022/05/08 00:58:22;;;;;;;4.68;1.70;;;18.90;45.50;;;;;;5024558;28;20165;-87
2022/05/08 01:00:47;;;;;;;6.55;2.10;;;18.90;45.50;;;;;;5024394;28;20158;-87
2022/05/08 01:03:14;;;;;;;4.38;1.85;;;18.90;45.60;;;;;;5040637;28;20165;-87
2022/05/08 01:05:41;;;;;;;5.47;1.85;;;18.90;45.60;;;;;;5039855;28;20189;-87
2022/05/08 01:08:09;;;;;;;6.07;1.90;;;18.80;45.60;;;;;;5019649;28;20379;-88
2022/05/08 01:10:40;;;;;;;5.80;1.92;;;18.90;45.50;;;;;;5020093;28;20174;-88
2022/05/08 01:13:06;;;;;;;5.35;2.00;;;18.90;45.70;;;;;;5019853;28;20182;-88
2022/05/08 01:15:44;;;;;;;4.05;1.70;;;18.90;45.70;;;;;;5037029;28;20162;-87
2022/05/08 01:18:15;;;;;;;5.78;1.95;;;18.90;45.70;;;;;;5053806;28;20191;-87
2022/05/08 01:20:42;;;;;;;4.60;1.83;;;18.90;45.80;;;;;;5003749;28;20182;-87
2022/05/08 01:23:08;;;;;;;4.97;1.83;;;18.90;45.70;;;;;;5053914;28;20161;-88
2022/05/08 01:25:35;;;;;;;4.63;1.88;;;18.80;45.60;;;;;;5053404;28;20184;-87
2022/05/08 01:28:03;;;;;;;7.00;2.05;;;18.80;45.70;;;;;;5053020;28;20193;-89
2022/05/08 01:30:29;;;;;;;6.80;1.85;;;18.90;45.70;;;;;;5036792;28;20150;-87
2022/05/08 01:32:58;;;;;;;5.35;1.95;;;18.90;45.70;;;;;;5020620;28;20211;-87
2022/05/08 01:35:24;;;;;;;7.38;2.20;;;18.80;45.70;;;;;;5020569;28;20151;-87
2022/05/08 01:37:54;;;;;;;3.47;1.75;;;18.80;45.80;;;;;;5020910;28;20730;-87
2022/05/08 01:40:26;;;;;;;4.00;1.50;;;18.80;45.80;;;;;;5003185;28;20197;-87
2022/05/08 01:42:52;;;;;;;3.78;1.88;;;18.80;45.80;;;;;;5019265;28;20189;-88
2022/05/08 01:45:19;;;;;;;4.70;2.05;;;18.80;45.80;;;;;;5053270;28;20170;-88
2022/05/08 01:50:33;;;;;;;3.38;1.50;;;18.80;45.80;;;;;;5027224;28;20194;-88
2022/05/08 01:53:03;;;;;;;4.30;1.67;;;18.80;45.80;;;;;;5040430;28;20169;-87
2022/05/08 01:55:30;;;;;;;4.35;1.65;;;18.80;45.80;;;;;;5005899;28;20182;-88
2022/05/08 01:57:58;;;;;;;4.32;1.77;;;18.80;45.80;;;;;;5039693;28;20750;-87
2022/05/08 02:00:26;;;;;;;4.15;1.85;;;18.80;45.80;;;;;;5023509;28;20178;-87
2022/05/08 02:02:57;;;;;;;7.72;1.80;;;18.80;45.80;;;;;;5006046;28;20194;-87
2022/05/08 02:05:25;;;;;;;4.50;1.70;;;18.80;45.90;;;;;;5006027;28;20186;-88
2022/05/08 02:07:50;;;;;;;2.42;1.42;;;18.80;45.80;;;;;;5005698;28;20696;-87
2022/05/08 02:10:18;;;;;;;5.50;1.63;;;18.80;46.60;;;;;;5022838;28;20177;-87
2022/05/08 02:12:46;;;;;;;5.57;1.90;;;18.80;45.90;;;;;;5021987;28;20701;-87
2022/05/08 02:15:15;;;;;;;2.88;1.40;;;18.80;45.80;;;;;;5038803;28;20193;-88
2022/05/08 02:17:41;;;;;;;2.72;1.80;;;18.80;45.90;;;;;;5022194;28;20189;-88
2022/05/08 02:20:11;;;;;;;4.13;1.63;;;18.80;46.60;;;;;;5022756;28;20193;-87
2022/05/08 02:22:41;;;;;;;3.58;1.60;;;18.70;46.00;;;;;;5021965;28;20197;-87
2022/05/08 02:25:10;;;;;;;6.65;2.03;;;18.80;46.00;;;;;;5039111;28;20185;-88
2022/05/08 02:27:40;;;;;;;3.78;1.80;;;18.80;46.00;;;;;;4998075;28;20620;-88
2022/05/08 02:30:09;;;;;;;6.88;1.90;;;18.90;46.10;;;;;;5022256;28;20182;-88
2022/05/08 02:32:40;;;;;;;3.40;1.70;;;18.80;46.10;;;;;;5013980;28;20659;-88
2022/05/08 02:35:13;;;;;;;4.20;1.70;;;18.80;46.00;;;;;;5022213;28;20182;-89
2022/05/08 02:37:41;;;;;;;3.17;1.52;;;18.80;46.00;;;;;;5022215;28;20192;-88
2022/05/08 02:40:09;;;;;;;3.65;1.40;;;18.80;46.00;;;;;;5021643;28;20189;-88
2022/05/08 02:42:39;;;;;;;5.13;1.67;;;18.80;46.00;;;;;;5023031;28;20170;-88
2022/05/08 02:45:08;;;;;;;4.50;1.80;;;18.80;46.10;;;;;;5021562;28;20236;-89
2022/05/08 02:47:39;;;;;;;3.53;1.45;;;18.80;46.20;;;;;;5039136;28;20192;-88
2022/05/08 02:50:11;;;;;;;6.90;2.03;;;18.80;46.00;;;;;;5022004;28;20180;-88
2022/05/08 02:52:40;;;;;;;4.82;1.80;;;18.80;46.00;;;;;;5021693;28;20204;-88
2022/05/08 03:00:42;;;;;;;6.28;1.90;;;18.80;46.20;;;;;;5039354;28;20150;-88
2022/05/08 03:03:08;;;;;;;6.20;1.60;;;18.70;46.10;;;;;;5021258;28;20280;-88
2022/05/08 03:05:36;;;;;;;3.75;1.90;;;18.80;46.10;;;;;;5038136;28;20173;-88
2022/05/08 03:08:02;;;;;;;4.03;1.67;;;18.80;46.20;;;;;;5020459;28;20217;-88
2022/05/08 03:11:25;;;;;;;4.15;2.08;;;18.80;46.20;;;;;;5021080;28;20537;-89
2022/05/08 03:13:21;;;;;;;2.20;1.60;;;18.70;46.20;;;;;;5026092;28;20603;-89
2022/05/08 03:15:51;;;;;;;6.20;1.65;;;18.80;46.20;;;;;;5020254;28;20353;-89
2022/05/08 03:18:23;;;;;;;6.05;1.60;;;18.80;46.20;;;;;;5019970;28;20228;-88
2022/05/08 03:20:50;;;;;;;2.70;1.52;;;18.80;46.10;;;;;;5036102;28;20185;-87
2022/05/08 03:23:17;;;;;;;3.50;1.50;;;18.80;46.10;;;;;;5003160;28;20186;-87
2022/05/08 03:25:44;;;;;;;2.20;1.42;;;18.70;46.10;;;;;;5019490;28;20185;-87
2022/05/08 03:28:13;;;;;;;3.72;1.48;;;18.80;46.10;;;;;;5019240;28;20213;-87
2022/05/08 03:30:40;;;;;;;3.95;1.50;;;18.70;46.10;;;;;;5019743;28;20177;-88
2022/05/08 03:33:08;;;;;;;2.33;1.73;;;18.80;46.20;;;;;;5019597;28;20182;-88
2022/05/08 03:35:40;;;;;;;2.95;1.48;;;18.80;46.40;;;;;;5035986;28;20216;-87
2022/05/08 03:38:08;;;;;;;3.05;1.75;;;18.80;46.10;;;;;;5019634;28;20190;-86
2022/05/08 03:40:40;;;;;;;3.53;1.80;;;18.80;46.00;;;;;;5052012;28;20546;-88
2022/05/08 03:43:07;;;;;;;4.63;1.67;;;18.80;46.10;;;;;;5018781;28;20193;-88
2022/05/08 03:45:35;;;;;;;2.55;1.60;;;18.70;46.80;;;;;;5018901;28;20206;-87
2022/05/08 03:48:02;;;;;;;3.67;1.80;;;18.70;46.10;;;;;;5019120;28;20611;-87
2022/05/08 03:50:30;;;;;;;3.75;1.80;;;18.70;46.00;;;;;;5035441;28;20561;-87
2022/05/08 03:52:57;;;;;;;4.15;1.70;;;18.80;46.20;;;;;;5035575;28;20273;-88
2022/05/08 03:55:23;;;;;;;5.25;1.85;;;18.80;46.20;;;;;;5002830;28;20205;-87
2022/05/08 03:57:50;;;;;;;3.28;1.73;;;18.70;46.10;;;;;;5036262;28;20693;-88
2022/05/08 04:00:20;;;;;;;7.07;2.25;;;18.70;46.20;;;;;;5051965;28;20327;-87
2022/05/08 04:02:53;;;;;;;3.00;1.45;;;18.70;46.20;;;;;;5019303;28;20213;-88
2022/05/08 04:05:23;;;;;;;5.00;1.58;;;18.80;46.20;;;;;;5018967;28;20192;-89
2022/05/08 04:07:48;;;;;;;4.05;1.50;;;18.80;46.20;;;;;;5021935;28;20315;-89
2022/05/08 04:10:14;;;;;;;3.42;1.65;;;18.80;46.10;;;;;;5039386;28;20205;-88
2022/05/08 04:12:42;;;;;;;3.05;1.60;;;18.80;46.10;;;;;;5055986;28;20150;-89
2022/05/08 04:16:15;;;;;;;4.32;1.73;;;18.80;46.10;;;;;;5023744;28;20168;-87
2022/05/08 04:17:56;;;;;;;4.35;1.60;;;18.80;46.20;;;;;;5044746;28;20179;-87
2022/05/08 04:20:22;;;;;;;3.97;1.95;;;18.80;46.10;;;;;;5022725;28;20570;-87
2022/05/08 04:25:30;;;;;;;4.22;1.48;;;18.80;46.10;;;;;;5043353;28;20154;-88
2022/05/08 04:27:59;;;;;;;3.55;1.30;;;18.80;46.00;;;;;;5022276;28;20280;-86
2022/05/08 04:30:31;;;;;;;5.25;1.70;;;18.80;46.00;;;;;;5005355;28;20269;-89
2022/05/08 04:33:01;;;;;;;2.58;1.80;;;18.80;45.80;;;;;;5005431;28;20181;-88
2022/05/08 04:35:27;;;;;;;3.75;1.58;;;18.90;46.00;;;;;;5021936;28;20263;-87
2022/05/08 04:37:56;;;;;;;3.20;1.38;;;18.80;45.90;;;;;;5022368;28;20203;-86
2022/05/08 04:40:24;;;;;;;3.92;1.27;;;18.80;45.80;;;;;;5021823;28;20185;-87
2022/05/08 04:42:54;;;;;;;2.88;1.40;;;18.90;45.90;;;;;;5022700;28;20647;-87
2022/05/08 04:45:24;;;;;;;3.30;1.58;;;18.90;45.90;;;;;;5021610;28;20203;-88
2022/05/08 04:47:53;;;;;;;4.25;1.38;;;18.90;45.90;;;;;;5005373;28;20217;-87
2022/05/08 04:50:21;;;;;;;2.42;1.40;;;19.00;45.80;;;;;;5005409;28;20177;-87
2022/05/08 04:52:49;;;;;;;2.90;1.60;;;18.90;45.70;;;;;;5021718;28;20182;-88
2022/05/08 04:55:19;;;;;;;5.35;1.60;;;18.90;45.70;;;;;;5005105;28;20177;-88
2022/05/08 04:57:49;;;;;;;2.72;1.38;;;18.90;45.60;;;;;;5005287;28;20188;-89
2022/05/08 05:00:19;;;;;;;4.22;1.90;;;19.00;45.70;;;;;;5021490;28;20208;-87
2022/05/08 05:02:51;;;;;;;4.85;1.63;;;19.00;45.70;;;;;;5005614;28;20184;-86
2022/05/08 05:05:19;;;;;;;2.00;1.45;;;18.90;45.60;;;;;;5005156;28;20196;-87
2022/05/08 05:07:45;;;;;;;5.15;1.70;;;19.00;45.50;;;;;;5055042;28;20705;-89
2022/05/08 05:10:11;;;;;;;1.83;1.35;;;19.00;45.50;;;;;;5038732;28;20169;-86
2022/05/08 05:12:38;;;;;;;5.05;1.50;;;19.00;45.50;;;;;;5039281;28;20169;-86
2022/05/08 05:15:06;;;;;;;5.35;1.50;;;19.00;45.30;;;;;;5039191;28;20153;-90
2022/05/08 05:17:32;;;;;;;3.65;1.25;;;19.10;45.40;;;;;;5039029;28;20229;-87
2022/05/08 05:19:58;;;;;;;2.90;1.42;;;19.00;45.40;;;;;;5039124;28;20631;-87
2022/05/08 05:22:25;;;;;;;4.35;1.75;;;19.10;45.30;;;;;;5055270;28;20164;-87
2022/05/08 05:24:51;;;;;;;1.80;1.23;;;19.10;45.40;;;;;;5057850;28;20219;-88
2022/05/08 05:27:17;;;;;;;2.63;1.48;;;19.10;45.20;;;;;;5042389;28;20276;-89
2022/05/08 05:29:42;;;;;;;2.45;1.42;;;19.10;45.20;;;;;;5042272;28;20158;-87
2022/05/08 05:32:10;;;;;;;2.88;1.50;;;19.10;45.20;;;;;;5026062;28;20169;-88
2022/05/08 05:34:43;;;;;;;3.28;1.85;;;19.10;45.10;;;;;;5042592;28;20184;-88
2022/05/08 05:37:14;;;;;;;3.53;1.60;;;19.10;45.10;;;;;;5008849;28;20217;-86
2022/05/08 05:39:42;;;;;;;5.28;1.58;;;19.20;45.10;;;;;;5024942;28;20184;-89
2022/05/08 05:42:12;;;;;;;2.17;1.35;;;19.20;44.90;;;;;;5009189;28;20190;-86
2022/05/08 05:44:38;;;;;;;2.08;1.20;;;19.20;45.00;;;;;;5024857;28;20184;-89
2022/05/08 05:49:44;;;;;;;4.78;1.60;;;19.20;45.00;;;;;;5076626;28;20169;-85
2022/05/08 05:52:09;;;;;;;2.78;1.40;;;19.20;45.20;;;;;;5076622;28;20527;-86
2022/05/08 05:54:35;;;;;;;3.70;1.23;;;19.20;45.20;;;;;;5059361;28;20169;-87
2022/05/08 05:57:02;;;;;;;3.60;1.63;;;19.10;45.20;;;;;;5041993;28;20604;-87
2022/05/08 05:59:28;;;;;;;3.22;1.33;;;19.10;45.10;;;;;;5042147;28;20149;-89
2022/05/08 06:01:53;;;;;;;4.60;1.45;;;19.20;45.00;;;;;;5058300;28;20158;-85
2022/05/08 06:04:19;;;;;;;4.63;1.40;;;19.10;45.00;;;;;;5041747;28;20244;-89
2022/05/08 06:06:45;;;;;;;4.57;1.40;;;19.30;44.80;;;;;;5057940;28;20244;-87
2022/05/08 06:09:11;;;;;;;2.67;1.48;;;19.30;45.60;;;;;;5057950;28;20217;-86
2022/05/08 06:11:37;;;;;;;3.78;1.58;;;19.20;44.90;;;;;;5041084;28;20179;-86
2022/05/08 06:14:06;;;;;;;3.97;1.55;;;19.20;44.90;;;;;;5041332;28;20169;-86
2022/05/08 06:16:35;;;;;;;3.15;1.40;;;19.30;45.00;;;;;;5023976;28;20521;-87
2022/05/08 06:19:02;;;;;;;3.95;1.33;;;19.30;44.80;;;;;;5007756;28;20268;-86
2022/05/08 06:21:31;;;;;;;4.25;1.30;;;19.30;45.00;;;;;;5075550;28;20160;-88
2022/05/08 06:24:00;;;;;;;2.67;1.50;;;19.30;44.70;;;;;;5007174;28;20191;-85
2022/05/08 06:26:25;;;;;;;3.65;1.63;;;19.40;44.90;;;;;;5007445;28;20192;-86
2022/05/08 06:28:52;;;;;;;3.17;1.50;;;19.30;44.90;;;;;;5058405;28;20292;-88
2022/05/08 06:31:21;;;;;;;3.03;1.23;;;19.30;44.70;;;;;;5042554;28;20153;-89
2022/05/08 06:33:47;;;;;;;2.67;1.20;;;19.30;44.50;;;;;;5025568;28;20226;-87
2022/05/08 06:36:16;;;;;;;1.90;1.55;;;19.40;44.50;;;;;;5041238;28;20203;-86
2022/05/08 06:38:42;;;;;;;2.42;1.40;;;19.50;44.40;;;;;;5007512;28;20185;-87
2022/05/08 06:41:10;;;;;;;2.88;1.30;;;19.50;44.30;;;;;;5057804;28;20649;-86
2022/05/08 06:43:40;;;;;;;2.70;1.60;;;19.40;44.40;;;;;;4991592;28;20235;-86
2022/05/08 06:46:09;;;;;;;3.13;1.55;;;19.50;44.20;;;;;;5006789;28;20548;-87
2022/05/08 06:48:39;;;;;;;3.58;1.48;;;19.50;44.40;;;;;;5007157;28;20219;-88
2022/05/08 06:51:07;;;;;;;1.98;1.20;;;19.50;44.20;;;;;;5023688;28;20209;-86
2022/05/08 06:53:36;;;;;;;2.38;1.40;;;19.50;44.10;;;;;;5023990;28;20257;-86
2022/05/08 06:56:06;;;;;;;3.53;1.50;;;19.60;44.10;;;;;;5007841;28;20184;-89
2022/05/08 07:01:34;;;;;;;3.92;1.50;;;19.50;44.40;;;;;;5007626;28;20205;-88
2022/05/08 07:01:39;;;;;;;3.08;1.45;;;19.40;44.70;;;;;;5033267;28;20228;-87
2022/05/08 07:04:10;;;;;;;3.53;1.70;;;19.40;44.80;;;;;;5014424;28;20188;-89
2022/05/08 07:06:39;;;;;;;2.28;1.35;;;19.30;45.70;;;;;;4992299;28;20184;-87
2022/05/08 07:09:09;;;;;;;3.60;1.42;;;19.20;44.50;;;;;;5000651;28;20308;-87
2022/05/08 07:11:41;;;;;;;2.70;1.40;;;19.20;44.10;;;;;;4980449;28;20190;-86
2022/05/08 07:14:09;;;;;;;2.47;1.05;;;19.30;43.60;;;;;;4972705;28;20329;-87
2022/05/08 07:16:36;;;;;;;1.85;1.17;;;19.30;42.90;;;;;;4972049;28;20659;-87
2022/05/08 07:19:04;;;;;;;2.53;1.38;;;19.40;42.70;;;;;;5000679;28;20182;-87
2022/05/08 07:21:32;;;;;;;3.25;1.17;;;19.30;43.30;;;;;;5019657;28;20189;-85
2022/05/08 07:23:59;;;;;;;1.92;1.00;;;19.30;42.90;;;;;;4987641;28;20546;-88
2022/05/08 07:26:29;;;;;;;2.35;1.27;;;19.40;41.80;;;;;;5004086;28;20189;-87
2022/05/08 07:28:56;;;;;;;2.00;1.30;;;19.50;42.10;;;;;;5003980;28;20746;-88
2022/05/08 07:31:26;;;;;;;2.42;1.10;;;19.40;42.30;;;;;;4987506;28;20192;-86
2022/05/08 07:36:40;;;;;;;1.85;0.88;;;19.40;41.80;;;;;;5015722;28;20640;-86
2022/05/08 07:39:11;;;;;;;2.33;1.20;;;19.50;41.00;;;;;;4987733;28;20205;-88
2022/05/08 07:41:38;;;;;;;2.28;0.90;;;19.50;41.90;;;;;;5000737;28;20640;-88
2022/05/08 07:44:08;;;;;;;3.05;1.25;;;19.50;40.80;;;;;;4980632;28;20233;-86
2022/05/08 07:46:38;;;;;;;2.05;1.40;;;19.50;40.70;;;;;;5004241;28;20209;-89
2022/05/08 07:49:05;;;;;;;4.55;1.40;;;19.60;40.30;;;;;;4985168;28;20217;-88
2022/05/08 07:51:32;;;;;;;3.08;1.17;;;19.50;40.80;;;;;;4987410;28;20205;-88
2022/05/08 07:54:02;;;;;;;1.38;1.10;;;19.40;40.20;;;;;;5001215;28;20230;-89
2022/05/08 07:56:29;;;;;;;2.72;1.10;;;19.50;40.80;;;;;;5004788;28;20190;-88
2022/05/08 07:58:58;;;;;;;1.52;1.10;;;19.50;40.40;;;;;;4987934;28;20268;-87
2022/05/08 08:01:25;;;;;;;1.40;1.10;;;19.50;39.80;;;;;;4988403;28;20182;-87
2022/05/08 08:03:55;;;;;;;2.30;1.10;;;19.60;39.70;;;;;;4987892;28;20771;-87
2022/05/08 08:06:22;;;;;;;3.03;1.23;;;19.40;39.60;;;;;;5003733;28;20215;-87
2022/05/08 08:08:52;;;;;;;1.85;0.90;;;19.50;39.60;;;;;;5051978;28;20276;-87
2022/05/08 08:11:18;;;;;;;1.67;1.25;;;19.50;39.80;;;;;;5023717;28;20206;-87
2022/05/08 08:13:44;;;;;;;1.45;1.00;;;19.50;39.40;;;;;;5057493;28;20282;-88
2022/05/08 08:16:10;;;;;;;1.13;1.02;;;19.50;39.40;;;;;;5056904;28;20171;-88
2022/05/08 08:18:42;;;;;;;1.42;1.00;;;19.50;38.70;;;;;;5057194;28;20165;-87
2022/05/08 08:21:10;;;;;;;3.45;1.08;;;19.70;39.30;;;;;;5024762;28;20188;-88
2022/05/08 08:23:36;;;;;;;1.20;0.80;;;19.70;38.80;;;;;;5057255;28;20707;-87
2022/05/08 08:26:06;;;;;;;1.40;0.88;;;19.60;38.90;;;;;;5041506;28;20205;-86
2022/05/08 08:28:32;;;;;;;1.52;0.95;;;19.60;38.20;;;;;;5009173;28;20217;-88
2022/05/08 08:30:58;;;;;;;1.40;0.90;;;19.60;38.10;;;;;;5040129;28;20176;-86
2022/05/08 08:33:26;;;;;;;1.60;1.02;;;19.60;38.40;;;;;;5040838;28;20169;-88
2022/05/08 08:35:56;;;;;;;1.85;1.00;;;19.60;38.20;;;;;;5058611;28;20146;-86
2022/05/08 08:38:22;;;;;;;2.90;1.00;;;19.60;37.80;;;;;;5024457;28;20223;-86
2022/05/08 08:40:52;;;;;;;2.90;0.98;;;19.60;38.40;;;;;;5057811;28;20604;-87
2022/05/08 08:43:18;;;;;;;1.88;0.90;;;19.60;37.80;;;;;;5006969;28;20184;-88
2022/05/08 08:48:34;;;;;;;1.70;0.90;;;19.60;37.30;;;;;;5018887;28;20201;-86
2022/05/08 08:51:00;;;;;;;1.02;0.77;;;19.50;38.60;;;;;;5041352;28;20512;-87
2022/05/08 08:53:27;;;;;;;0.88;0.70;;;19.50;38.00;;;;;;5058096;28;20153;-87
2022/05/08 08:55:53;;;;;;;1.95;0.95;;;19.50;38.30;;;;;;5039908;28;20165;-86
2022/05/08 08:58:23;;;;;;;2.13;1.00;;;19.50;38.60;;;;;;5056863;28;20593;-87
2022/05/08 09:00:49;;;;;;;2.45;1.08;;;19.50;37.60;;;;;;4994363;28;20628;-87
2022/05/08 09:03:25;;;;;;;0.88;0.80;;;19.50;37.50;;;;;;5061002;28;20157;-87
2022/05/08 09:05:59;;;;;;;1.10;0.70;;;19.40;36.80;;;;;;5011271;28;20180;-87
2022/05/08 09:08:27;;;;;;;1.17;0.93;;;19.40;37.40;;;;;;5078639;28;20706;-86
2022/05/08 09:10:58;;;;;;;3.38;0.98;;;19.40;37.10;;;;;;5027042;28;20169;-87
2022/05/08 09:13:26;;;;;;;3.40;1.20;;;19.40;37.10;;;;;;5009383;28;20226;-88
2022/05/08 09:16:02;;;;;;;1.77;1.02;;;19.30;37.10;;;;;;5059719;28;20157;-86
2022/05/08 09:18:28;;;;;;;1.98;0.80;;;19.40;36.80;;;;;;5059310;28;20153;-87
2022/05/08 09:21:54;;;;;;;1.80;1.25;;;19.40;37.00;;;;;;5059335;28;20547;-87
2022/05/08 09:23:44;;;;;;;1.45;0.93;;;19.40;36.50;;;;;;5020334;28;20184;-88
2022/05/08 09:26:10;;;;;;;1.00;0.90;;;19.50;36.30;;;;;;5059076;28;20169;-89
2022/05/08 09:28:41;;;;;;;2.95;0.85;;;19.50;36.40;;;;;;5043458;28;20196;-88
2022/05/08 09:31:15;;;;;;;2.33;1.13;;;19.50;36.90;;;;;;5042731;28;20165;-87
2022/05/08 09:33:43;;;;;;;2.03;0.95;;;19.50;36.60;;;;;;5008893;28;20185;-88
2022/05/08 09:36:19;;;;;;;1.63;1.00;;;19.60;36.20;;;;;;5042353;28;20169;-87
2022/05/08 09:38:53;;;;;;;1.05;0.80;;;19.60;36.50;;;;;;5059479;28;20570;-87
2022/05/08 09:41:24;;;;;;;1.40;0.65;;;19.50;36.60;;;;;;5042449;28;20146;-88
2022/05/08 09:43:51;;;;;;;2.22;1.15;;;19.50;36.30;;;;;;5042133;28;20164;-88
2022/05/08 09:46:17;;;;;;;1.80;0.90;;;19.60;36.40;;;;;;5025742;28;20177;-88
2022/05/08 09:48:43;;;;;;;1.70;0.90;;;19.50;36.20;;;;;;5025497;28;20262;-88
2022/05/08 09:51:10;;;;;;;1.55;1.05;;;19.50;36.20;;;;;;5021708;28;20172;-87
2022/05/08 09:53:37;;;;;;;0.85;0.80;;;19.50;36.40;;;;;;5055088;28;20161;-88
2022/05/08 09:56:06;;;;;;;0.85;0.77;;;19.60;36.10;;;;;;5038920;28;20162;-88
2022/05/08 09:58:32;;;;;;;1.92;0.73;;;19.50;35.90;;;;;;5038281;28;20212;-88
2022/05/08 10:00:58;;;;;;;2.00;0.77;;;19.50;35.60;;;;;;5054937;28;20161;-86
2022/05/08 10:03:24;;;;;;;1.60;0.90;;;19.50;35.50;;;;;;5055069;28;20257;-86
2022/05/08 10:05:50;;;;;;;1.20;1.10;;;19.50;35.80;;;;;;5055129;28;20629;-87
2022/05/08 10:08:18;;;;;;;1.17;0.70;;;19.50;35.80;;;;;;5054323;28;20221;-86
2022/05/08 10:16:49;;;;;;;2.22;1.02;;;19.50;35.50;;;;;;5055274;28;20142;-87
2022/05/08 10:19:45;;;;;;;1.45;0.85;;;19.50;35.00;;;;;;5038969;28;20219;-86
2022/05/08 10:22:13;;;;;;;1.00;0.70;;;19.50;34.80;;;;;;5038828;28;20166;-86
2022/05/08 10:24:42;;;;;;;0.80;0.77;;;19.50;34.60;;;;;;5056463;28;20181;-87
2022/05/08 10:27:14;;;;;;;2.50;0.80;;;19.50;34.30;;;;;;5022023;28;20166;-86
2022/05/08 10:29:42;;;;;;;0.70;0.70;;;19.60;34.30;;;;;;5025892;28;20165;-87
2022/05/08 10:32:10;;;;;;;1.85;0.80;;;19.60;34.40;;;;;;5039097;28;20181;-86
2022/05/08 10:34:39;;;;;;;4.55;1.17;;;19.50;33.60;;;;;;5054278;28;20544;-86
2022/05/08 10:37:25;;;;;;;1.75;0.65;;;19.60;33.50;;;;;;5037937;28;20146;-86
2022/05/08 10:39:53;;;;;;;1.52;0.60;;;19.50;33.30;;;;;;5024617;28;20158;-88
2022/05/08 10:42:40;;;;;;;1.90;0.75;;;19.60;33.40;;;;;;5022584;28;20194;-87
2022/05/08 10:45:22;;;;;;;2.40;0.70;;;19.50;33.70;;;;;;5039122;28;20156;-86
2022/05/08 10:47:48;;;;;;;1.65;0.73;;;19.50;33.40;;;;;;5025324;28;20297;-86
2022/05/08 10:50:14;;;;;;;1.75;0.80;;;19.50;34.00;;;;;;5021520;28;20542;-87
2022/05/08 10:52:42;;;;;;;0.68;0.68;;;19.40;33.50;;;;;;5038317;28;20158;-87
2022/05/08 10:55:12;;;;;;;2.03;0.90;;;19.50;33.10;;;;;;5038231;28;20165;-86
2022/05/08 10:57:39;;;;;;;0.98;0.80;;;19.50;33.00;;;;;;5038563;28;20165;-87
2022/05/08 11:00:06;;;;;;;1.05;0.77;;;19.50;32.90;;;;;;5020764;28;20173;-87
2022/05/08 11:02:47;;;;;;;2.65;0.60;;;19.50;32.40;;;;;;5020808;28;20166;-87
2022/05/08 11:05:21;;;;;;;1.00;0.70;;;19.50;32.30;;;;;;5038384;28;20169;-87
2022/05/08 11:07:49;;;;;;;0.70;0.70;;;19.60;32.00;;;;;;5037889;28;20317;-86
2022/05/08 11:10:22;;;;;;;1.38;0.90;;;19.60;32.00;;;;;;5021348;28;20168;-86
2022/05/08 11:13:12;;;;;;;0.70;0.50;;;19.60;32.20;;;;;;5038313;28;20162;-86
2022/05/08 11:15:45;;;;;;;1.20;0.90;;;19.60;32.10;;;;;;5037473;28;20621;-86
2022/05/08 11:18:24;;;;;;;1.90;0.65;;;19.60;31.70;;;;;;5037695;28;20170;-86
2022/05/08 11:20:55;;;;;;;0.70;0.70;;;19.60;31.30;;;;;;5054529;28;20173;-87
2022/05/08 11:23:22;;;;;;;0.60;0.50;;;19.60;31.10;;;;;;5036804;28;20533;-87
2022/05/08 11:25:49;;;;;;;0.90;0.73;;;19.70;31.00;;;;;;5036693;28;20178;-86
2022/05/08 11:28:17;;;;;;;1.33;0.80;;;19.60;31.40;;;;;;5036487;28;20185;-86
2022/05/08 11:30:44;;;;;;;1.20;0.70;;;19.60;31.20;;;;;;5036877;28;20146;-86
2022/05/08 11:38:51;;;;;;;1.80;0.63;;;19.70;31.20;;;;;;5037946;28;20580;-86
2022/05/08 11:41:21;;;;;;;0.90;0.60;;;19.60;30.60;;;;;;5052574;28;20173;-87
2022/05/08 11:43:51;;;;;;;1.10;0.70;;;19.70;31.00;;;;;;5037030;28;20170;-86
2022/05/08 11:46:19;;;;;;;3.50;0.75;;;19.60;30.80;;;;;;5036098;28;20162;-86
2022/05/08 11:48:47;;;;;;;0.68;0.60;;;19.70;30.90;;;;;;5053705;28;20182;-86
2022/05/08 11:51:14;;;;;;;1.08;0.70;;;19.70;30.90;;;;;;5035956;28;20150;-86
2022/05/08 11:53:45;;;;;;;0.88;0.70;;;19.70;30.90;;;;;;5036067;28;20158;-86
2022/05/08 11:56:33;;;;;;;2.25;0.82;;;19.70;30.80;;;;;;5035631;28;20204;-87
2022/05/08 11:59:00;;;;;;;2.17;0.80;;;19.70;30.70;;;;;;5019394;28;20178;-86
2022/05/08 12:01:29;;;;;;;1.88;0.68;;;19.60;30.50;;;;;;5036568;28;20281;-87
2022/05/08 12:03:56;;;;;;;1.75;0.70;;;19.70;30.60;;;;;;5036121;28;20514;-86
2022/05/08 12:06:22;;;;;;;0.70;0.70;;;19.60;30.10;;;;;;5035618;28;20194;-86
2022/05/08 12:08:48;;;;;;;0.75;0.68;;;19.50;30.10;;;;;;5035574;28;20312;-86
2022/05/08 12:11:27;;;;;;;0.80;0.70;;;19.50;30.10;;;;;;5035797;28;20176;-87
2022/05/08 12:14:01;;;;;;;1.15;0.77;;;19.50;30.40;;;;;;5035795;28;20173;-86
2022/05/08 12:16:27;;;;;;;2.05;0.77;;;19.60;30.20;;;;;;5019102;28;20192;-87
2022/05/08 12:19:15;;;;;;;1.50;0.63;;;19.60;30.10;;;;;;5019592;28;20617;-87
2022/05/08 12:21:43;;;;;;;1.63;0.60;;;19.60;30.00;;;;;;5035579;28;20702;-87
2022/05/08 12:24:14;;;;;;;1.10;0.85;;;19.60;30.00;;;;;;5036212;28;20543;-87
2022/05/08 12:26:41;;;;;;;0.90;0.60;;;19.70;30.10;;;;;;5037193;28;20170;-87
2022/05/08 12:29:26;;;;;;;0.63;0.63;;;19.70;30.40;;;;;;5043957;28;20220;-87
2022/05/08 12:31:53;;;;;;;1.88;0.70;;;19.60;29.90;;;;;;5024562;28;20323;-86
2022/05/08 12:34:19;;;;;;;1.20;0.63;;;19.70;29.80;;;;;;5021444;28;20158;-86
2022/05/08 12:36:49;;;;;;;1.45;0.70;;;19.60;29.80;;;;;;5021666;28;20162;-87
2022/05/08 12:39:19;;;;;;;0.65;0.57;;;19.60;29.80;;;;;;5026836;28;20192;-86
2022/05/08 12:41:45;;;;;;;0.50;0.50;;;19.60;29.90;;;;;;5018771;28;20186;-87
2022/05/08 12:44:12;;;;;;;1.15;0.73;;;19.60;29.80;;;;;;5035591;28;20162;-87
2022/05/08 12:46:38;;;;;;;0.63;0.60;;;19.60;29.50;;;;;;5035303;28;20196;-87
2022/05/08 12:49:04;;;;;;;0.40;0.40;;;19.70;29.80;;;;;;5035194;28;20204;-86
2022/05/08 12:51:35;;;;;;;1.02;0.68;;;19.60;29.50;;;;;;5035354;28;20165;-86
2022/05/08 12:54:02;;;;;;;1.92;0.70;;;19.60;29.30;;;;;;5035411;28;20169;-86
2022/05/08 12:56:30;;;;;;;1.02;0.70;;;19.60;29.50;;;;;;5054230;28;20150;-87
2022/05/08 13:01:34;;;;;;;1.75;0.63;;;19.50;29.50;;;;;;5036913;28;20239;-86
2022/05/08 13:04:05;;;;;;;1.10;0.60;;;19.50;29.00;;;;;;5036069;28;20161;-87
2022/05/08 13:06:31;;;;;;;2.60;0.73;;;19.60;29.40;;;;;;5002713;28;20197;-86
2022/05/08 13:08:57;;;;;;;0.98;0.73;;;19.50;29.50;;;;;;5018566;28;20225;-87
2022/05/08 13:11:22;;;;;;;1.13;0.70;;;19.50;29.30;;;;;;5035923;28;20509;-87
2022/05/08 13:13:48;;;;;;;2.17;0.65;;;19.50;29.20;;;;;;5035395;28;20151;-87
2022/05/08 13:16:15;;;;;;;1.63;0.75;;;19.60;29.10;;;;;;5035810;28;20161;-87
2022/05/08 13:18:41;;;;;;;1.75;0.60;;;19.60;29.20;;;;;;5035566;28;20170;-88
2022/05/08 13:21:07;;;;;;;0.88;0.73;;;19.60;29.10;;;;;;5035718;28;20249;-86
2022/05/08 13:23:33;;;;;;;0.73;0.70;;;19.60;29.20;;;;;;5035476;28;20210;-86
2022/05/08 13:25:59;;;;;;;1.17;0.90;;;19.60;29.20;;;;;;5018756;28;20610;-86
2022/05/08 13:28:27;;;;;;;1.60;0.70;;;19.60;28.80;;;;;;5037485;28;20661;-86
2022/05/08 13:30:53;;;;;;;0.60;0.60;;;19.60;29.00;;;;;;5035400;28;20210;-86